Time;durP1;ratioP1;P1;durP2;ratioP2;P2;SDS_P1;SDS_P2;PMS_P1;PMS_P2;Temp;Humidity;BMP_temperature;BMP_pressure;BME280_temperature;BME280_humidity;BME280_pressure;Samples;Min_cycle;Max_cycle;Signal;HPM_P1;HPM_P2
2022/12/27 00:00:47;;;;;;;9.23;3.95;;;;;;;3.17;92.36;102140.97;5073370;28;20104;-68
2022/12/27 00:03:13;;;;;;;11.45;4.00;;;;;;;3.16;91.37;102136.56;5072952;28;20048;-69
2022/12/27 00:05:45;;;;;;;16.02;4.18;;;;;;;3.14;92.19;102135.59;5055174;28;20039;-68
2022/12/27 00:08:11;;;;;;;9.27;3.90;;;;;;;3.14;92.15;102138.19;5055297;28;20028;-67
2022/12/27 00:10:37;;;;;;;13.25;4.55;;;;;;;3.15;92.78;102150.44;5055264;28;20027;-67
2022/12/27 00:13:02;;;;;;;14.15;3.88;;;;;;;3.15;92.71;102143.50;5055331;28;20028;-66
2022/12/27 00:15:28;;;;;;;9.52;3.83;;;;;;;3.14;92.13;102148.66;5073073;28;20398;-67
2022/12/27 00:17:53;;;;;;;10.73;3.85;;;;;;;3.12;92.45;102150.25;5073037;28;20029;-67
2022/12/27 00:20:19;;;;;;;9.43;4.22;;;;;;;3.11;92.88;102148.44;5055234;28;20032;-67
2022/12/27 00:22:44;;;;;;;11.13;4.47;;;;;;;3.14;92.48;102149.53;5055162;28;20025;-68
2022/12/27 00:25:10;;;;;;;12.70;4.43;;;;;;;3.11;92.45;102143.22;5055110;28;20474;-66
2022/12/27 00:27:36;;;;;;;14.27;4.05;;;;;;;3.12;92.47;102147.63;5072645;28;20032;-67
2022/12/27 00:30:02;;;;;;;9.90;4.20;;;;;;;3.10;92.97;102151.88;5054988;28;20107;-66
2022/12/27 00:32:27;;;;;;;17.25;4.45;;;;;;;3.09;93.19;102150.97;5072995;28;20108;-66
2022/12/27 00:34:52;;;;;;;10.07;4.38;;;;;;;3.08;93.31;102150.88;5072806;28;20501;-68
2022/12/27 00:37:18;;;;;;;11.85;4.20;;;;;;;3.10;93.27;102155.38;5072765;28;20056;-67
2022/12/27 00:39:43;;;;;;;10.60;3.80;;;;;;;3.11;93.32;102159.78;5054636;28;20025;-67
2022/12/27 00:42:09;;;;;;;10.68;4.07;;;;;;;3.11;93.29;102166.72;5072804;28;20029;-67
2022/12/27 00:44:34;;;;;;;12.15;3.90;;;;;;;3.10;93.87;102160.59;5072845;28;20040;-67
2022/12/27 00:46:59;;;;;;;9.48;4.13;;;;;;;3.13;93.42;102157.31;5072667;28;20029;-67
2022/12/27 00:49:25;;;;;;;10.95;4.18;;;;;;;3.10;93.64;102162.31;5072839;28;20107;-68
2022/12/27 00:51:50;;;;;;;10.20;3.78;;;;;;;3.12;93.57;102163.31;5054759;28;20074;-67
2022/12/27 00:54:16;;;;;;;11.45;3.90;;;;;;;3.14;93.84;102169.53;5072702;28;20482;-67
2022/12/27 00:56:41;;;;;;;13.13;4.03;;;;;;;3.13;93.95;102168.66;5072749;28;20025;-67
2022/12/27 00:59:09;;;;;;;13.68;4.10;;;;;;;3.17;94.12;102174.94;5072464;28;20049;-67
2022/12/27 01:01:35;;;;;;;8.63;3.90;;;;;;;3.15;93.86;102174.84;5054901;28;20029;-67
2022/12/27 01:04:01;;;;;;;9.23;3.70;;;;;;;3.17;93.45;102174.94;5054622;28;20474;-66
2022/12/27 01:06:31;;;;;;;9.65;3.70;;;;;;;3.19;93.55;102178.56;5072658;28;20551;-68
2022/12/27 01:08:57;;;;;;;9.32;3.80;;;;;;;3.22;93.97;102179.66;5072610;28;20025;-68
2022/12/27 01:11:25;;;;;;;11.43;3.53;;;;;;;3.21;94.02;102177.84;5072645;28;20029;-68
2022/12/27 01:13:50;;;;;;;8.60;3.72;;;;;;;3.23;93.75;102188.38;5072528;28;20385;-68
2022/12/27 01:16:19;;;;;;;9.02;3.80;;;;;;;3.21;94.39;102188.31;5073655;28;20142;-67
2022/12/27 01:18:45;;;;;;;10.65;4.35;;;;;;;3.21;94.14;102188.31;5076505;28;20025;-67
2022/12/27 01:21:13;;;;;;;11.05;3.80;;;;;;;3.21;94.70;102184.75;5076331;28;20036;-67
2022/12/27 01:23:39;;;;;;;11.82;3.42;;;;;;;3.25;94.25;102195.53;5076251;28;20056;-67
2022/12/27 01:26:10;;;;;;;14.88;4.00;;;;;;;3.25;94.49;102189.38;5076375;28;20020;-67
2022/12/27 01:28:36;;;;;;;14.48;3.92;;;;;;;3.19;94.54;102195.13;5076348;28;20094;-67
2022/12/27 01:31:11;;;;;;;10.95;3.92;;;;;;;3.21;94.01;102195.22;5076335;28;20033;-67
2022/12/27 01:33:37;;;;;;;8.32;3.45;;;;;;;3.20;94.60;102201.25;5076264;28;20035;-67
2022/12/27 01:36:08;;;;;;;10.80;3.78;;;;;;;3.18;94.54;102198.56;5058181;28;20115;-67
2022/12/27 01:38:33;;;;;;;8.45;3.72;;;;;;;3.19;94.81;102210.81;5076067;28;20012;-67
2022/12/27 01:40:59;;;;;;;10.02;3.70;;;;;;;3.16;94.89;102212.31;5076164;28;20533;-67
2022/12/27 01:43:37;;;;;;;8.63;3.60;;;;;;;3.17;95.34;102212.44;5057953;28;20082;-67
2022/12/27 01:46:03;;;;;;;8.65;3.50;;;;;;;3.17;95.55;102211.50;5075850;28;20486;-67
2022/12/27 01:48:28;;;;;;;8.70;3.65;;;;;;;3.18;94.98;102232.50;5075977;28;20027;-68
2022/12/27 01:51:02;;;;;;;14.50;4.40;;;;;;;3.19;95.71;102236.00;5075959;28;20029;-68
2022/12/27 01:53:34;;;;;;;12.93;4.07;;;;;;;3.13;96.53;102220.88;5075878;28;20064;-67
2022/12/27 01:56:16;;;;;;;12.32;3.75;;;;;;;3.13;96.36;102220.88;5075952;28;20142;-67
2022/12/27 01:59:06;;;;;;;7.13;3.20;;;;;;;3.13;96.63;102230.44;5075565;28;20052;-67
2022/12/27 02:01:37;;;;;;;10.05;3.33;;;;;;;3.14;96.42;102225.28;5075752;28;20052;-68
2022/12/27 02:04:06;;;;;;;12.93;3.78;;;;;;;3.14;96.89;102232.22;5075675;28;20032;-67
2022/12/27 02:06:35;;;;;;;11.68;3.25;;;;;;;3.15;96.63;102234.00;5075620;28;20451;-68
2022/12/27 02:09:00;;;;;;;15.63;3.90;;;;;;;3.13;96.43;102239.16;5075581;28;20028;-68
2022/12/27 02:14:15;;;;;;;10.68;3.55;;;;;;;3.18;97.18;102244.66;5075848;28;20397;-68
2022/12/27 02:16:40;;;;;;;8.88;3.20;;;;;;;3.26;97.02;102241.72;5075186;28;20375;-67
2022/12/27 02:19:17;;;;;;;8.13;3.90;;;;;;;3.22;96.96;102236.22;5075297;28;20063;-68
2022/12/27 02:22:16;;;;;;;11.00;3.35;;;;;;;3.23;96.88;102245.84;5075331;28;20028;-67
2022/12/27 02:25:24;;;;;;;9.30;3.67;;;;;;;3.21;97.66;102248.38;5075297;28;20053;-67
2022/12/27 02:28:17;;;;;;;12.27;3.53;;;;;;;3.21;97.93;102239.63;5074959;28;20467;-67
2022/12/27 02:30:45;;;;;;;12.75;3.45;;;;;;;3.20;98.13;102243.94;5075170;28;20025;-67
2022/12/27 02:33:15;;;;;;;15.98;3.55;;;;;;;3.20;97.92;102246.56;5075090;28;20067;-68
2022/12/27 02:35:53;;;;;;;10.05;3.50;;;;;;;3.21;98.28;102252.66;5075155;28;20067;-68
2022/12/27 02:38:23;;;;;;;8.60;3.10;;;;;;;3.21;98.70;102247.44;5075011;28;20067;-68
2022/12/27 02:59:14;;;;;;;9.43;3.47;;;;;;;3.21;99.09;102237.00;5033242;28;20286;-68
2022/12/27 03:04:32;;;;;;;14.63;3.53;;;;;;;3.20;99.07;102241.31;5074767;28;20048;-67
2022/12/27 03:07:11;;;;;;;10.13;3.28;;;;;;;3.20;99.10;102248.25;5074657;28;20021;-67
2022/12/27 03:16:08;;;;;;;9.02;3.15;;;;;;;3.22;99.42;102229.28;5059371;28;20093;-68
2022/12/27 03:19:01;;;;;;;10.13;2.95;;;;;;;3.29;98.94;102242.72;5095199;22;20131;-64
2022/12/27 03:27:43;;;;;;;9.90;3.10;;;;;;;3.29;99.47;102255.78;5034548;28;20496;-63
2022/12/27 03:33:14;;;;;;;12.35;3.20;;;;;;;3.31;99.45;102262.00;5027667;28;20036;-64
2022/12/27 03:38:01;;;;;;;11.48;3.08;;;;;;;3.34;98.93;102268.34;5034030;28;20022;-63
2022/12/27 03:38:35;;;;;;;11.60;3.00;;;;;;;3.35;99.76;102272.75;5033406;28;20048;-62
2022/12/27 03:43:49;;;;;;;6.93;3.00;;;;;;;3.37;99.35;102280.66;5034193;28;20044;-65
2022/12/27 03:46:35;;;;;;;7.43;3.03;;;;;;;3.40;99.75;102287.00;5033606;28;20026;-64
2022/12/27 03:49:19;;;;;;;13.80;3.00;;;;;;;3.41;99.67;102274.84;5034097;28;20107;-64
2022/12/27 03:51:54;;;;;;;9.15;2.70;;;;;;;3.43;100.00;102278.47;5033764;28;20025;-63
2022/12/27 03:54:25;;;;;;;9.45;3.03;;;;;;;3.43;99.65;102281.06;5093911;22;20510;-65
2022/12/27 03:56:56;;;;;;;8.85;2.42;;;;;;;3.44;99.84;102281.16;5052658;28;20090;-64
2022/12/27 03:59:23;;;;;;;11.15;3.30;;;;;;;3.43;100.00;102286.31;5035512;28;20029;-64
2022/12/27 04:01:48;;;;;;;8.45;3.08;;;;;;;3.42;99.90;102289.69;5053772;28;20359;-65
2022/12/27 04:04:14;;;;;;;10.13;2.83;;;;;;;3.42;99.61;102289.69;5053726;28;20044;-64
2022/12/27 04:06:39;;;;;;;7.63;2.88;;;;;;;3.42;99.94;102287.09;5053372;28;20316;-64
2022/12/27 04:36:23;;;;;;;10.50;3.45;;;;;;;3.40;100.00;102281.78;5038353;28;20143;-82
2022/12/27 04:38:49;;;;;;;12.73;3.20;;;;;;;3.38;100.00;102283.38;5053715;28;20461;-82
2022/12/27 04:55:04;;;;;;;10.95;3.35;;;;;;;3.33;100.00;102308.31;5053279;28;20495;-82
2022/12/27 04:57:30;;;;;;;8.35;2.75;;;;;;;3.36;100.00;102323.28;5035374;28;20029;-82
2022/12/27 05:02:39;;;;;;;7.55;3.00;;;;;;;3.34;100.00;102314.44;5053191;28;20047;-82
2022/12/27 05:05:06;;;;;;;11.00;3.15;;;;;;;3.28;100.00;102314.97;5053230;28;20033;-82
2022/12/27 05:15:43;;;;;;;8.25;2.75;;;;;;;3.44;100.00;102317.75;5052740;28;20048;-82
2022/12/27 05:18:08;;;;;;;10.82;3.25;;;;;;;3.43;100.00;102315.03;5052734;28;20045;-83
2022/12/27 05:20:34;;;;;;;7.35;2.90;;;;;;;3.42;100.00;102319.34;5035385;28;20033;-82
2022/12/27 05:25:44;;;;;;;8.63;3.03;;;;;;;3.32;100.00;102300.38;5052928;28;20101;-82
2022/12/27 05:28:11;;;;;;;10.43;3.00;;;;;;;3.37;100.00;102319.88;5052608;28;20049;-83
2022/12/27 05:30:39;;;;;;;7.00;2.90;;;;;;;3.20;100.00;102300.50;5052537;28;20112;-82
2022/12/27 05:33:05;;;;;;;9.70;3.03;;;;;;;3.19;100.00;102307.44;5052906;28;20064;-81
2022/12/27 05:35:33;;;;;;;8.93;2.83;;;;;;;3.25;100.00;102335.66;5034923;28;20373;-82
2022/12/27 05:37:58;;;;;;;10.13;2.90;;;;;;;3.18;100.00;102331.75;5034971;28;20032;-82
2022/12/27 05:40:24;;;;;;;13.32;3.38;;;;;;;3.21;100.00;102337.19;5052536;28;20033;-82
2022/12/27 05:42:50;;;;;;;8.48;2.85;;;;;;;3.18;100.00;102320.41;5052733;28;20029;-83
2022/12/27 05:45:16;;;;;;;9.93;3.05;;;;;;;3.31;100.00;102346.50;5035006;28;20457;-84
2022/12/27 05:47:42;;;;;;;13.10;3.03;;;;;;;3.39;100.00;102363.59;5034841;28;20041;-85
2022/12/27 05:50:08;;;;;;;11.88;2.90;;;;;;;3.48;100.00;102374.63;5052764;28;20041;-85
2022/12/27 05:52:33;;;;;;;11.02;3.25;;;;;;;3.53;100.00;102374.00;5034906;28;20063;-85
2022/12/27 05:54:58;;;;;;;10.27;2.83;;;;;;;3.57;100.00;102387.38;5034905;28;20033;-85
2022/12/27 05:57:24;;;;;;;10.80;3.30;;;;;;;3.60;100.00;102376.19;5034924;28;20047;-85
2022/12/27 05:59:49;;;;;;;9.90;2.90;;;;;;;3.56;100.00;102364.66;5052570;28;20112;-85
2022/12/27 06:02:15;;;;;;;10.13;3.25;;;;;;;3.64;100.00;102380.81;5053639;28;20078;-85
2022/12/27 06:04:40;;;;;;;11.00;2.92;;;;;;;3.60;100.00;102374.50;5021829;28;20029;-85
2022/12/27 06:07:06;;;;;;;9.57;3.22;;;;;;;3.41;100.00;102343.66;5038505;28;20175;-85
2022/12/27 06:09:31;;;;;;;10.45;3.50;;;;;;;3.66;100.00;102385.34;5055768;28;20393;-85
2022/12/27 06:11:57;;;;;;;11.43;3.25;;;;;;;3.67;100.00;102381.91;5056127;28;20040;-85
2022/12/27 06:14:22;;;;;;;8.10;3.20;;;;;;;3.65;100.00;102378.31;5055996;28;20037;-85
2022/12/27 06:16:47;;;;;;;9.75;3.22;;;;;;;3.51;100.00;102355.59;5055756;28;20045;-85
2022/12/27 06:19:13;;;;;;;12.13;3.35;;;;;;;3.69;100.00;102390.75;5049286;28;20052;-85
2022/12/27 06:21:38;;;;;;;10.25;3.13;;;;;;;3.56;100.00;102361.16;5075645;28;20027;-83
2022/12/27 06:24:04;;;;;;;12.20;3.35;;;;;;;3.67;100.00;102389.75;5058267;28;20456;-84
2022/12/27 06:26:29;;;;;;;10.30;2.78;;;;;;;3.54;100.00;102370.59;5076050;28;20522;-85
2022/12/27 06:28:56;;;;;;;16.63;3.33;;;;;;;3.62;100.00;102380.72;5058871;28;20058;-85
2022/12/27 06:31:22;;;;;;;9.82;3.45;;;;;;;3.50;100.00;102365.16;5077292;28;20081;-84
2022/12/27 06:33:49;;;;;;;9.52;3.08;;;;;;;3.41;100.00;102351.50;5041373;28;20028;-84
2022/12/27 06:36:16;;;;;;;7.28;2.90;;;;;;;3.55;100.00;102388.06;5075589;28;20036;-86
2022/12/27 06:38:42;;;;;;;13.40;3.28;;;;;;;3.40;100.00;102368.00;5075674;28;20044;-85
2022/12/27 06:41:10;;;;;;;8.05;3.00;;;;;;;3.32;100.00;102352.63;5075459;28;20376;-85
2022/12/27 06:43:36;;;;;;;7.28;2.65;;;;;;;3.39;100.00;102374.03;5075631;28;20028;-84
2022/12/27 06:46:04;;;;;;;9.50;2.90;;;;;;;3.17;100.00;102336.84;5075026;28;20054;-84
2022/12/27 06:48:30;;;;;;;9.85;3.25;;;;;;;3.20;100.00;102361.47;5074863;28;20024;-84
2022/12/27 06:50:55;;;;;;;8.55;3.28;;;;;;;3.29;100.00;102376.84;5057513;28;20086;-84
2022/12/27 06:53:21;;;;;;;9.15;3.20;;;;;;;3.23;100.00;102381.69;5075058;28;20032;-84
2022/12/27 06:55:47;;;;;;;11.30;2.97;;;;;;;2.93;100.00;102341.41;5075243;28;20032;-84
2022/12/27 06:58:12;;;;;;;12.35;3.13;;;;;;;3.13;100.00;102381.91;5074966;28;20071;-84
2022/12/27 07:00:39;;;;;;;7.05;2.97;;;;;;;3.01;100.00;102368.94;5056892;28;20041;-85
2022/12/27 07:03:04;;;;;;;10.35;3.20;;;;;;;3.04;100.00;102384.81;5057096;28;20037;-84
2022/12/27 07:05:30;;;;;;;10.30;4.10;;;;;;;2.98;100.00;102387.00;5074770;28;20032;-84
2022/12/27 07:07:55;;;;;;;12.30;3.20;;;;;;;2.96;100.00;102394.75;5074710;28;20040;-84
2022/12/27 07:10:21;;;;;;;12.50;3.40;;;;;;;2.94;100.00;102403.25;5074695;28;20047;-84
2022/12/27 07:12:46;;;;;;;8.27;3.03;;;;;;;2.93;100.00;102410.19;5074776;28;20037;-84
2022/12/27 07:15:12;;;;;;;8.65;3.17;;;;;;;2.83;100.00;102397.34;5074030;28;20471;-84
2022/12/27 07:17:38;;;;;;;10.35;3.63;;;;;;;2.82;100.00;102400.72;5056884;28;20033;-83
2022/12/27 07:20:04;;;;;;;8.40;3.17;;;;;;;2.76;100.00;102390.78;5075075;28;20091;-83
2022/12/27 07:22:30;;;;;;;9.50;3.15;;;;;;;2.83;100.00;102401.66;5074706;28;20464;-83
2022/12/27 07:24:55;;;;;;;11.02;3.70;;;;;;;2.86;100.00;102401.84;5056729;28;20036;-83
2022/12/27 07:27:20;;;;;;;9.88;3.65;;;;;;;2.89;100.00;102415.13;5074601;28;20035;-83
2022/12/27 07:29:46;;;;;;;15.10;4.00;;;;;;;2.86;100.00;102409.69;5074547;28;20139;-83
2022/12/27 07:32:11;;;;;;;11.77;3.90;;;;;;;2.83;100.00;102410.41;5074358;28;20040;-84
2022/12/27 07:34:37;;;;;;;10.75;3.40;;;;;;;2.83;100.00;102414.72;5074538;28;20511;-83
2022/12/27 07:37:02;;;;;;;6.93;3.15;;;;;;;2.83;100.00;102425.16;5074281;28;20032;-83
2022/12/27 07:39:27;;;;;;;11.15;3.85;;;;;;;2.83;100.00;102417.31;5055999;28;20388;-83
2022/12/27 07:41:53;;;;;;;9.77;3.58;;;;;;;2.81;100.00;102422.41;5056099;28;20105;-83
2022/12/27 07:44:18;;;;;;;9.02;3.95;;;;;;;2.71;100.00;102409.56;5073601;28;20400;-83
2022/12/27 07:46:44;;;;;;;10.52;3.25;;;;;;;2.78;100.00;102427.44;5073556;28;20115;-82
2022/12/27 07:49:10;;;;;;;13.02;3.78;;;;;;;2.78;100.00;102422.22;5056300;28;20116;-84
2022/12/27 07:51:36;;;;;;;10.05;3.53;;;;;;;2.80;100.00;102424.94;5056007;28;20036;-84
2022/12/27 07:54:02;;;;;;;11.80;3.22;;;;;;;2.73;100.00;102418.38;5055771;28;20044;-87
2022/12/27 07:56:28;;;;;;;9.32;3.50;;;;;;;2.76;100.00;102411.69;5055589;28;20044;-84
2022/12/27 07:58:55;;;;;;;8.15;3.40;;;;;;;2.56;100.00;102366.75;5073549;28;20469;-83
2022/12/27 08:01:22;;;;;;;9.05;3.33;;;;;;;2.91;100.00;102435.31;5073464;28;20052;-86
2022/12/27 08:03:48;;;;;;;10.60;3.83;;;;;;;2.87;100.00;102424.53;5073926;28;20472;-86
2022/12/27 08:06:21;;;;;;;16.60;3.63;;;;;;;2.92;100.00;102431.91;5073049;28;20039;-86
2022/12/27 08:08:47;;;;;;;9.73;3.17;;;;;;;3.00;100.00;102442.84;5073450;28;20039;-85
2022/12/27 08:11:13;;;;;;;12.50;4.10;;;;;;;2.92;100.00;102421.44;5055741;28;20040;-84
2022/12/27 08:13:38;;;;;;;12.95;4.05;;;;;;;3.11;100.00;102439.22;5073129;28;20029;-84
2022/12/27 08:16:04;;;;;;;13.73;3.83;;;;;;;2.89;100.00;102396.84;5073121;28;20480;-85
2022/12/27 08:18:29;;;;;;;9.77;3.47;;;;;;;3.26;100.00;102445.47;5073065;28;20059;-85
2022/12/27 08:20:54;;;;;;;11.90;3.78;;;;;;;3.36;100.00;102446.97;5055471;28;20130;-84
2022/12/27 08:23:22;;;;;;;11.93;4.20;;;;;;;3.40;100.00;102441.16;5077144;28;20028;-95
2022/12/27 08:25:48;;;;;;;15.90;4.20;;;;;;;3.44;100.00;102432.72;5073744;28;20483;-88
2022/12/27 08:28:15;;;;;;;13.07;4.25;;;;;;;3.64;100.00;102449.69;5073117;28;20032;-88
2022/12/27 08:30:42;;;;;;;9.70;3.85;;;;;;;3.71;100.00;102457.09;5056168;28;20036;-88
2022/12/27 08:33:09;;;;;;;7.07;3.85;;;;;;;3.87;100.00;102458.09;5055157;28;20031;-87
2022/12/27 08:35:42;;;;;;;10.52;4.25;;;;;;;3.92;100.00;102448.81;5073709;28;20036;-88
2022/12/27 08:38:08;;;;;;;16.55;4.38;;;;;;;4.08;100.00;102456.84;5073122;28;20029;-89
2022/12/27 08:40:33;;;;;;;9.43;3.83;;;;;;;4.18;100.00;102455.69;5054853;28;20028;-93
2022/12/27 08:43:01;;;;;;;11.35;4.20;;;;;;;4.25;100.00;102450.94;5073866;28;20090;-95
2022/12/27 08:45:27;;;;;;;7.50;3.53;;;;;;;4.19;100.00;102418.25;5026328;28;20040;-87
2022/12/27 08:47:57;;;;;;;12.88;4.20;;;;;;;4.39;100.00;102436.09;5054655;28;20060;-88
2022/12/27 08:50:23;;;;;;;11.93;4.07;;;;;;;4.58;99.96;102450.28;5054917;28;20182;-88
2022/12/27 08:52:48;;;;;;;12.50;4.13;;;;;;;4.56;98.70;102430.97;5072804;28;20120;-87
2022/12/27 08:55:13;;;;;;;11.40;4.18;;;;;;;4.60;98.91;102419.88;5054598;28;20392;-86
2022/12/27 08:57:39;;;;;;;11.80;3.90;;;;;;;4.68;98.57;102419.53;5038353;28;20029;-85
2022/12/27 09:00:05;;;;;;;10.57;3.78;;;;;;;4.79;98.29;102417.53;5038411;28;20492;-85
2022/12/27 09:02:33;;;;;;;11.45;3.97;;;;;;;5.10;97.57;102441.22;5057057;28;20028;-95
2022/12/27 09:04:59;;;;;;;11.98;3.70;;;;;;;5.12;96.20;102442.19;5057840;28;20048;-88
2022/12/27 09:07:24;;;;;;;9.05;3.70;;;;;;;5.11;96.32;102408.06;5054875;28;20036;-87
2022/12/27 09:09:59;;;;;;;13.38;3.90;;;;;;;5.33;95.49;102449.50;5055256;28;20107;-92
2022/12/27 09:12:24;;;;;;;9.32;3.53;;;;;;;5.29;94.87;102411.72;5075776;28;20124;-90
2022/12/27 09:14:50;;;;;;;9.48;4.32;;;;;;;5.28;94.49;102405.59;5054699;28;20120;-87
2022/12/27 09:17:15;;;;;;;8.30;3.53;;;;;;;5.44;94.58;102419.59;5073157;28;20036;-87
2022/12/27 09:19:48;;;;;;;10.30;3.60;;;;;;;5.62;94.58;102425.84;5075156;28;20557;-92
2022/12/27 09:25:04;;;;;;;8.90;3.58;;;;;;;5.83;93.43;102447.13;5055053;28;20417;-86
2022/12/27 09:27:29;;;;;;;10.52;3.80;;;;;;;5.88;92.90;102445.66;5056736;28;20029;-86
2022/12/27 09:29:54;;;;;;;10.57;3.45;;;;;;;5.97;92.86;102456.69;5073542;28;20047;-84
2022/12/27 09:32:20;;;;;;;8.20;3.60;;;;;;;6.01;92.42;102447.28;5054511;28;20081;-87
2022/12/27 09:34:45;;;;;;;9.80;3.38;;;;;;;6.15;91.55;102446.31;5072223;28;20078;-82
2022/12/27 09:37:11;;;;;;;9.45;3.58;;;;;;;6.41;91.91;102462.56;5055543;28;20122;-84
2022/12/27 09:39:36;;;;;;;13.88;3.72;;;;;;;6.50;90.83;102447.28;5076456;28;20040;-84
2022/12/27 09:42:35;;;;;;;14.35;3.78;;;;;;;6.84;89.57;102473.59;5076524;28;20028;-84
2022/12/27 09:45:24;;;;;;;10.93;3.08;;;;;;;7.10;89.69;102463.53;5076257;28;20036;-84
2022/12/27 09:48:40;;;;;;;9.40;3.50;;;;;;;7.33;88.77;102464.72;5075747;28;20029;-84
2022/12/27 09:51:10;;;;;;;7.97;3.20;;;;;;;7.26;86.12;102414.41;5069866;28;20544;-84
2022/12/27 09:53:44;;;;;;;9.95;3.38;;;;;;;7.73;85.30;102452.66;5076667;28;20107;-84
2022/12/27 09:56:21;;;;;;;8.98;3.10;;;;;;;7.75;85.83;102450.09;5076317;28;20127;-84
2022/12/27 09:58:52;;;;;;;10.73;3.40;;;;;;;7.63;84.46;102460.94;5075922;28;20518;-84
2022/12/27 10:01:20;;;;;;;10.95;3.30;;;;;;;7.40;84.33;102440.50;5057778;28;20031;-84
2022/12/27 10:03:46;;;;;;;8.95;3.40;;;;;;;7.25;84.91;102438.03;5076092;28;20048;-84
2022/12/27 10:06:11;;;;;;;11.63;3.65;;;;;;;7.37;85.51;102457.03;5057662;28;20079;-84
2022/12/27 10:09:06;;;;;;;8.15;3.28;;;;;;;7.38;85.59;102466.72;5075904;28;20357;-84
2022/12/27 10:11:51;;;;;;;11.95;3.35;;;;;;;7.42;85.30;102479.19;5023720;28;20044;-84
2022/12/27 10:14:26;;;;;;;15.55;3.45;;;;;;;7.51;84.75;102476.13;5075555;28;20028;-84
2022/12/27 10:16:56;;;;;;;8.23;3.42;;;;;;;7.46;85.60;102446.97;5075412;28;20107;-84
2022/12/27 10:19:31;;;;;;;7.82;3.13;;;;;;;7.71;85.30;102469.22;5075883;28;20041;-84
2022/12/27 10:22:13;;;;;;;9.30;3.42;;;;;;;7.82;85.35;102454.81;5075221;28;20442;-84
2022/12/27 10:24:45;;;;;;;8.50;3.35;;;;;;;8.03;83.39;102466.38;5075646;28;20031;-85
2022/12/27 10:27:24;;;;;;;10.07;3.30;;;;;;;7.98;83.28;102449.47;5075305;28;20039;-84
2022/12/27 10:29:54;;;;;;;7.15;2.90;;;;;;;7.98;82.37;102456.47;5063107;28;20482;-84
2022/12/27 10:32:20;;;;;;;7.93;3.17;;;;;;;8.02;82.53;102454.03;5075684;28;20047;-84
2022/12/27 10:34:52;;;;;;;10.98;3.80;;;;;;;8.07;81.67;102456.91;5076449;28;20464;-84
2022/12/27 10:37:17;;;;;;;9.52;3.50;;;;;;;8.22;82.97;102459.31;5075490;28;20033;-84
2022/12/27 10:39:43;;;;;;;8.55;3.60;;;;;;;8.35;82.06;102461.72;5041207;28;20035;-84
2022/12/27 10:42:27;;;;;;;10.05;3.40;;;;;;;8.44;81.19;102466.53;5057926;28;20028;-83
2022/12/27 10:45:35;;;;;;;12.27;3.35;;;;;;;8.60;81.91;102466.38;5057554;28;20032;-84
2022/12/27 10:48:16;;;;;;;6.78;3.38;;;;;;;8.67;81.84;102444.75;5056865;28;20490;-84
2022/12/27 10:50:55;;;;;;;11.20;3.30;;;;;;;9.03;81.83;102466.50;5057212;28;20120;-84
2022/12/27 10:53:44;;;;;;;10.02;3.10;;;;;;;9.14;80.17;102472.25;5056981;28;20463;-84
2022/12/27 10:56:14;;;;;;;9.98;3.20;;;;;;;9.19;79.23;102464.53;5055629;28;20056;-85
2022/12/27 10:58:48;;;;;;;9.60;3.33;;;;;;;9.12;78.52;102451.91;5074691;28;20024;-85
2022/12/27 11:01:25;;;;;;;9.88;3.78;;;;;;;9.15;79.60;102466.13;5074655;28;20025;-85
2022/12/27 11:04:07;;;;;;;10.02;3.40;;;;;;;8.89;77.78;102474.66;5074775;28;20484;-84
2022/12/27 11:06:32;;;;;;;7.15;3.03;;;;;;;8.60;79.30;102442.66;5074541;28;20029;-84
2022/12/27 11:09:24;;;;;;;9.30;3.30;;;;;;;8.46;80.41;102456.94;5056965;28;20036;-84
2022/12/27 11:11:50;;;;;;;12.97;3.33;;;;;;;8.26;81.10;102456.94;5056643;28;20052;-84
2022/12/27 11:14:19;;;;;;;9.85;3.10;;;;;;;8.16;81.23;102452.06;5074647;28;20059;-84
2022/12/27 11:16:46;;;;;;;8.18;3.13;;;;;;;8.04;81.78;102430.41;5073972;28;20063;-84
2022/12/27 11:19:24;;;;;;;8.02;3.10;;;;;;;7.92;82.28;102451.81;5074513;28;20057;-84
2022/12/27 11:21:52;;;;;;;6.97;3.15;;;;;;;7.78;82.44;102434.47;5074039;28;20041;-84
2022/12/27 11:24:20;;;;;;;9.18;3.50;;;;;;;7.78;83.27;102423.94;5056716;28;20036;-84
2022/12/27 11:26:56;;;;;;;11.77;3.58;;;;;;;7.80;83.05;102435.44;5073858;28;20373;-84
2022/12/27 11:29:27;;;;;;;11.30;3.45;;;;;;;7.82;84.09;102438.13;5074135;28;20084;-84
2022/12/27 11:31:54;;;;;;;6.32;3.10;;;;;;;7.77;83.75;102427.41;5074121;28;20033;-84
2022/12/27 11:34:35;;;;;;;8.68;3.30;;;;;;;7.78;84.22;102432.72;5074161;28;20039;-83
2022/12/27 11:37:05;;;;;;;10.02;3.20;;;;;;;7.80;83.66;102439.81;5074088;28;20055;-84
2022/12/27 11:39:42;;;;;;;7.05;3.00;;;;;;;7.81;84.48;102442.50;5073634;28;20060;-84
2022/12/27 11:42:32;;;;;;;8.40;3.08;;;;;;;7.64;83.74;102419.75;5074138;28;20099;-84
2022/12/27 11:45:32;;;;;;;9.32;3.35;;;;;;;7.74;84.22;102451.81;5055748;28;20028;-83
2022/12/27 11:48:09;;;;;;;7.85;3.40;;;;;;;7.67;84.88;102438.31;5055623;28;20322;-83
2022/12/27 11:50:59;;;;;;;8.23;3.28;;;;;;;7.65;84.91;102430.34;5074113;28;20028;-83
2022/12/27 11:53:39;;;;;;;12.45;3.80;;;;;;;7.58;84.56;102412.47;5055825;28;20032;-84
2022/12/27 11:56:18;;;;;;;9.38;3.60;;;;;;;7.65;85.22;102418.91;5056043;28;20445;-83
2022/12/27 11:58:59;;;;;;;9.15;3.15;;;;;;;7.77;85.58;102430.03;5055690;28;20028;-84
2022/12/27 12:01:55;;;;;;;9.68;3.55;;;;;;;7.76;85.35;102428.25;5055144;28;20029;-84
2022/12/27 12:04:53;;;;;;;8.77;3.00;;;;;;;7.80;85.53;102424.91;5055523;28;20039;-83
2022/12/27 12:07:27;;;;;;;6.93;3.28;;;;;;;7.63;83.98;102421.50;5055846;28;20063;-84
2022/12/27 12:10:06;;;;;;;10.20;3.03;;;;;;;7.56;84.78;102423.75;5073316;28;20029;-84
2022/12/27 12:12:43;;;;;;;8.55;3.08;;;;;;;7.53;84.64;102414.84;5073294;28;20036;-84
2022/12/27 12:15:27;;;;;;;8.27;2.83;;;;;;;7.54;85.49;102413.16;5073025;28;20044;-84
2022/12/27 12:18:11;;;;;;;7.10;3.10;;;;;;;7.52;85.10;102410.44;5055401;28;20100;-83
2022/12/27 12:20:36;;;;;;;8.05;3.00;;;;;;;7.46;85.22;102394.38;5073315;28;20624;-83
2022/12/27 12:23:35;;;;;;;8.95;3.08;;;;;;;7.45;85.78;102389.94;5073677;28;20024;-83
2022/12/27 12:26:17;;;;;;;7.63;3.00;;;;;;;7.42;85.49;102400.31;5055340;28;20036;-83
2022/12/27 12:28:58;;;;;;;11.27;3.03;;;;;;;7.42;84.56;102399.41;5073356;28;20024;-84
2022/12/27 12:31:54;;;;;;;7.93;3.22;;;;;;;7.42;85.33;102402.03;5072850;28;20278;-83
2022/12/27 12:34:35;;;;;;;8.95;3.05;;;;;;;7.39;85.64;102394.88;5073270;28;20024;-83
2022/12/27 12:37:37;;;;;;;11.68;3.20;;;;;;;7.41;85.37;102392.31;5073057;28;20024;-83
2022/12/27 12:40:26;;;;;;;6.72;2.95;;;;;;;7.37;85.68;102395.66;5055300;28;20029;-83
2022/12/27 12:42:57;;;;;;;8.27;3.10;;;;;;;7.31;86.07;102396.25;5073116;28;20024;-84
2022/12/27 12:46:20;;;;;;;9.10;2.95;;;;;;;7.34;86.40;102392.88;5073272;28;20507;-83
2022/12/27 12:49:30;;;;;;;8.85;3.20;;;;;;;7.37;85.57;102383.41;4975214;28;20085;-83
2022/12/27 12:52:26;;;;;;;8.95;5.30;;;;;;;7.22;85.76;102373.03;4933411;29;20127;-84
2022/12/27 12:54:51;;;;;;;9.95;3.60;;;;;;;7.19;85.99;102362.34;4975122;28;20034;-83
2022/12/27 12:57:48;;;;;;;7.93;3.30;;;;;;;7.16;86.39;102356.97;5027906;28;20060;-83
2022/12/27 13:00:26;;;;;;;7.78;3.22;;;;;;;7.11;86.92;102349.66;5066238;28;20116;-83
2022/12/27 13:03:10;;;;;;;12.38;3.35;;;;;;;7.23;88.03;102345.00;5072867;28;20071;-83
2022/12/27 13:06:09;;;;;;;7.82;3.33;;;;;;;7.35;87.52;102340.34;5072949;28;20553;-83
2022/12/27 13:08:47;;;;;;;9.10;3.28;;;;;;;7.34;86.37;102319.25;5072931;28;20025;-83
2022/12/27 13:11:51;;;;;;;9.93;3.55;;;;;;;7.52;87.08;102325.38;5055919;28;20106;-84
2022/12/27 13:14:41;;;;;;;10.30;3.03;;;;;;;7.50;86.30;102313.88;4978597;28;20038;-84
2022/12/27 13:17:18;;;;;;;7.38;2.97;;;;;;;7.50;85.87;102309.53;5074892;28;20048;-83
2022/12/27 13:20:20;;;;;;;10.90;2.90;;;;;;;7.58;86.15;102317.78;5076313;28;20045;-84
2022/12/27 13:23:25;;;;;;;7.85;2.95;;;;;;;7.58;85.89;102319.47;5077178;28;20040;-83
2022/12/27 13:26:04;;;;;;;9.82;3.42;;;;;;;7.53;85.18;102319.25;5058665;28;20036;-83
2022/12/27 13:29:07;;;;;;;7.55;2.80;;;;;;;7.52;85.95;102328.00;5076621;28;20036;-83